Latest Weather Observations for Hobart

IDT60901

Issued at 3:41 am EST Thursday 25 July 2024 (issued every 10 minutes, with the page automatically refreshed every 10 minutes)

About weather observations | Map of Hobart area stations | Latest observations for Hobart area | Other Formats
Station Details ID: 094029 Name: HOBART (ELLERSLIE ROAD) Lat: -42.89 Lon: 147.33 Height: 50.5 m
Data from the previous 72 hours. | See also: Recent months at Hobart
Date/Time
EST
Temp
°C
App
Temp
°C
Dew
Point
°C
Rel
Hum
%
Delta-T
°C
Wind Press
QNH
hPa
Press
MSL
hPa
Rain since
9am
mm
Dir  Spd
km/h
Gust
km/h
Spd
kts
Gust
kts
25/03:30am 12.7 8.0 5.1 60 3.5 N 19 28 10 15 1000.4 1000.5 0.0
25/03:00am 12.7 8.3 4.9 59 3.6 N 17 24 9 13 1000.7 1000.8 0.0
25/02:30am 13.1 8.1 4.8 57 3.8 N 20 30 11 16 1001.3 1001.4 0.0
25/02:00am 12.7 7.9 4.9 59 3.6 N 19 26 10 14 1002.1 1002.2 0.0
25/01:30am 12.3 8.0 5.2 62 3.3 N 17 26 9 14 1002.7 1002.8 0.0
25/01:00am 12.5 8.5 5.0 60 3.5 N 15 24 8 13 1003.2 1003.3 0.0
25/12:30am 12.5 8.1 5.0 60 3.5 N 17 26 9 14 1003.7 1003.8 0.0
25/12:00am 12.4 7.6 4.9 60 3.5 N 19 32 10 17 1003.9 1004.0 0.0
 
Date/Time
EST
Temp
°C
App
Temp
°C
Dew
Point
°C
Rel
Hum
%
Delta-T
°C
Wind Press
QNH
hPa
Press
MSL
hPa
Rain since
9am
mm
Dir  Spd
km/h
Gust
km/h
Spd
kts
Gust
kts
24/11:30pm 11.7 7.4 5.3 65 3.0 NNE 17 24 9 13 1004.4 1004.5 0.0
24/11:00pm 11.8 7.0 5.7 66 2.9 NE 20 28 11 15 1004.7 1004.8 0.0
24/10:30pm 11.8 7.0 5.4 65 3.0 ENE 20 30 11 16 1005.0 1005.1 0.0
24/10:00pm 11.9 7.5 4.9 62 3.2 ENE 17 24 9 13 1005.5 1005.6 0.0
24/09:30pm 11.9 7.5 4.9 62 3.2 E 17 26 9 14 1005.8 1005.9 0.0
24/09:00pm 11.9 9.2 3.7 57 3.7 NE 7 15 4 8 1005.9 1006.0 0.0
24/08:30pm 12.6 8.5 4.1 56 3.9 NNW 15 26 8 14 1005.9 1006.0 0.0
24/08:00pm 13.1 7.9 3.7 53 4.3 NNW 20 32 11 17 1006.2 1006.3 0.0
24/07:30pm 13.3 7.3 3.4 51 4.4 NNW 24 44 13 24 1005.7 1005.8 0.0
24/07:00pm 13.8 6.7 3.3 49 4.7 NNW 30 48 16 26 1005.2 1005.3 0.0
24/06:38pm 14.0 7.2 2.9 47 5.0 NNW 28 46 15 25 1005.2 1005.3 0.0
24/06:30pm 14.1 7.7 3.0 47 5.0 NNW 26 43 14 23 1005.3 1005.4 0.0
24/06:00pm 14.2 8.9 2.8 46 5.1 NNW 20 35 11 19 1005.3 1005.4 0.0
24/05:30pm 15.0 9.6 2.5 43 5.6 N 20 41 11 22 1005.3 1005.4 0.0
24/05:00pm 15.5 10.1 2.7 42 5.8 N 20 35 11 19 1005.2 1005.3 0.0
24/04:30pm 15.8 9.9 1.9 39 6.2 N 22 35 12 19 1005.4 1005.5 0.0
24/04:00pm 16.7 11.2 2.0 37 6.6 N 20 33 11 18 1005.6 1005.7 0.0
24/03:30pm 16.9 10.6 1.8 36 6.8 N 24 41 13 22 1005.9 1006.0 0.0
24/03:00pm 17.0 11.5 1.8 36 6.8 N 20 35 11 19 1006.2 1006.3 0.0
24/02:36pm 18.4 11.0 -0.4 28 8.1 N 28 46 15 25 1006.4 1006.5 0.0
24/02:30pm 18.5 12.0 0.2 29 8.0 NNW 24 46 13 25 1006.4 1006.5 0.0
24/02:00pm 18.9 13.3 1.0 30 8.0 NNW 20 32 11 17 1006.8 1006.9 0.0
24/01:30pm 18.6 13.1 2.0 33 7.6 N 20 33 11 18 1007.3 1007.4 0.0
24/01:00pm 17.5 12.6 1.9 35 7.0 N 17 24 9 13 1008.0 1008.1 0.0
24/12:40pm 18.1 10.7 -0.7 28 8.1 NNW 28 46 15 25 1008.0 1008.1 0.0
24/12:30pm 18.0 12.6 1.1 32 7.5 N 19 32 10 17 1008.4 1008.5 0.0
24/12:00pm 17.5 12.1 1.1 33 7.3 N 19 35 10 19 1008.8 1008.9 0.0
24/11:30am 17.7 12.6 0.8 32 7.5 NNW 17 30 9 16 1009.4 1009.6 0.0
24/11:00am 17.5 12.6 2.3 36 6.9 N 17 32 9 17 1009.7 1009.9 0.0
24/10:30am 16.4 10.4 1.3 36 6.7 NNW 22 41 12 22 1009.9 1010.1 0.0
24/10:00am 15.3 9.6 0.7 37 6.3 NNW 20 30 11 16 1010.0 1010.2 0.0
24/09:30am 14.4 9.7 1.0 40 5.8 NNW 15 30 8 16 1010.1 1010.3 0.0
24/09:00am 13.5 8.7 0.5 41 5.5 N 15 28 8 15 1010.7 1010.8 0.2
24/08:30am 11.9 6.7 0.4 45 4.8 NNW 17 22 9 12 1010.8 1010.9 0.2
24/08:00am 12.0 6.8 0.1 44 4.9 NNW 17 28 9 15 1010.7 1010.8 0.2
24/07:30am 11.6 6.8 0.1 45 4.7 NNW 15 26 8 14 1010.6 1010.7 0.2
24/07:00am 11.0 6.9 -0.2 46 4.5 N 11 20 6 11 1010.6 1010.7 0.2
24/06:30am 10.6 5.8 0.1 48 4.3 NNW 15 20 8 11 1010.5 1010.6 0.2
24/06:00am 9.3 5.2 0.0 52 3.7 NW 11 17 6 9 1010.5 1010.6 0.2
24/05:30am 9.6 5.2 0.2 52 3.8 NNW 13 19 7 10 1010.8 1010.9 0.2
24/05:00am 9.2 5.9 0.4 54 3.6 NW 7 15 4 8 1010.8 1010.9 0.2
24/04:30am 9.6 6.5 0.2 52 3.8 NNW 6 11 3 6 1010.9 1011.0 0.2
24/04:00am 11.0 7.3 -0.2 46 4.5 N 9 22 5 12 1010.9 1011.0 0.2
24/03:30am 10.9 6.8 0.0 47 4.4 NNW 11 17 6 9 1010.9 1011.0 0.2
24/03:00am 11.2 6.7 0.0 46 4.6 N 13 20 7 11 1011.1 1011.2 0.2
24/02:30am 11.2 5.6 0.0 46 4.6 N 19 28 10 15 1011.2 1011.3 0.2
24/02:00am 10.5 5.7 0.5 50 4.1 NNW 15 26 8 14 1011.4 1011.5 0.2
24/01:30am 9.9 5.6 1.0 54 3.7 NW 13 19 7 10 1011.6 1011.7 0.2
24/01:00am 10.1 6.2 1.2 54 3.7 NW 11 17 6 9 1011.7 1011.8 0.2
24/12:30am 10.8 6.9 1.4 52 3.9 NNW 11 17 6 9 1011.9 1012.0 0.2
24/12:00am 11.0 7.6 1.8 53 3.9 NW 9 17 5 9 1012.2 1012.3 0.2
 
Date/Time
EST
Temp
°C
App
Temp
°C
Dew
Point
°C
Rel
Hum
%
Delta-T
°C
Wind Press
QNH
hPa
Press
MSL
hPa
Rain since
9am
mm
Dir  Spd
km/h
Gust
km/h
Spd
kts
Gust
kts
23/11:30pm 11.5 7.4 2.3 53 4.0 NNW 13 22 7 12 1012.5 1012.6 0.2
23/11:00pm 11.7 7.3 2.7 54 3.9 NNW 15 26 8 14 1012.6 1012.7 0.2
23/10:30pm 12.3 7.0 3.0 53 4.1 NNW 20 33 11 18 1012.5 1012.6 0.2
23/10:00pm 12.6 7.4 3.3 53 4.1 NNW 20 35 11 19 1012.6 1012.7 0.2
23/09:30pm 12.6 7.4 3.3 53 4.1 NNW 20 32 11 17 1012.5 1012.6 0.2
23/09:00pm 12.7 7.5 3.4 53 4.2 NNW 20 33 11 18 1012.3 1012.4 0.2
23/08:30pm 12.6 8.3 3.3 53 4.1 N 15 20 8 11 1012.5 1012.6 0.2
23/08:00pm 12.7 9.5 2.8 51 4.4 NNW 9 17 5 9 1012.5 1012.6 0.2
23/07:30pm 12.7 9.5 2.8 51 4.4 NNW 9 15 5 8 1012.4 1012.5 0.2
23/07:00pm 13.2 9.2 3.0 50 4.5 NW 13 22 7 12 1012.5 1012.6 0.2
23/06:30pm 13.8 10.5 2.7 47 4.9 NNW 9 15 5 8 1012.3 1012.4 0.2
23/06:00pm 14.3 9.5 2.5 45 5.2 NNW 17 30 9 16 1012.1 1012.2 0.2
23/05:30pm 14.7 9.3 2.6 44 5.4 NW 20 35 11 19 1011.9 1012.0 0.2
23/05:00pm 15.1 7.8 2.3 42 5.7 NW 30 57 16 31 1011.8 1011.9 0.2
23/04:30pm 15.5 7.6 2.3 41 5.9 NW 33 52 18 28 1011.7 1011.8 0.2
23/04:00pm 15.9 8.6 2.7 41 6.0 NW 30 50 16 27 1011.5 1011.6 0.2
23/03:33pm 16.3 9.2 3.4 42 5.9 NW 30 48 16 26 1011.1 1011.2 0.2
23/03:30pm 16.4 8.8 3.1 41 6.1 NNW 32 44 17 24 1011.1 1011.2 0.2
23/03:00pm 17.1 10.2 2.7 38 6.6 NW 28 46 15 25 1011.1 1011.2 0.2
23/02:35pm 17.4 10.6 3.3 39 6.5 NNW 28 48 15 26 1011.0 1011.1 0.2
23/02:30pm 17.6 12.0 3.5 39 6.6 NW 22 35 12 19 1010.9 1011.0 0.2
23/02:07pm 17.4 9.7 3.3 39 6.5 NNW 33 54 18 29 1010.9 1011.0 0.2
23/02:00pm 17.4 9.8 4.0 41 6.3 NW 33 48 18 26 1011.1 1011.2 0.2
23/01:57pm 17.1 9.7 3.8 41 6.2 NW 32 48 17 26 1011.1 1011.2 0.0
23/01:30pm 16.6 10.0 4.3 44 5.8 NNW 28 56 15 30 1011.4 1011.5 0.0
23/01:00pm 16.4 8.8 3.8 43 5.9 NNW 33 57 18 31 1011.5 1011.6 0.0
23/12:30pm 16.5 9.5 4.2 44 5.8 NW 30 57 16 31 1012.2 1012.3 0.0
23/12:24pm 16.6 10.1 4.6 45 5.7 NNW 28 50 15 27 1012.1 1012.2 0.0
23/12:00pm 16.6 11.9 5.3 47 5.4 NW 19 35 10 19 1012.7 1012.8 0.0
23/11:30am 15.9 10.7 5.5 50 5.0 NNW 22 46 12 25 1013.1 1013.2 0.0
23/11:00am 15.7 9.4 5.9 52 4.7 NNW 28 48 15 26 1013.6 1013.7 0.0
23/10:53am 15.6 9.3 5.5 51 4.8 NW 28 59 15 32 1013.5 1013.6 0.0
23/10:50am 15.6 9.7 5.8 52 4.7 NW 26 59 14 32 1013.4 1013.5 0.0
23/10:41am 15.5 11.4 6.2 54 4.5 NNW 17 39 9 21 1013.5 1013.6 0.0
23/10:30am 15.5 12.3 7.0 57 4.2 NNW 13 17 7 9 1013.5 1013.6 0.0
23/10:00am 14.6 12.9 8.5 67 3.1 E 7 13 4 7 1013.6 1013.7 0.0
23/09:30am 14.3 12.7 8.7 69 2.8 E 7 9 4 5 1013.6 1013.7 0.0
23/09:00am 13.7 12.3 9.4 75 2.2 NW 7 13 4 7 1013.8 1013.9 0.0
23/08:30am 12.5 11.0 8.6 77 1.9 W 6 9 3 5 1013.6 1013.7 0.0
23/08:00am 12.9 10.8 8.4 74 2.2 WNW 9 17 5 9 1013.6 1013.7 0.0
23/07:30am 13.3 10.7 7.7 69 2.8 NNW 11 17 6 9 1013.5 1013.6 0.0
23/07:00am 13.6 10.9 7.4 66 3.0 NNW 11 17 6 9 1013.1 1013.2 0.0
23/06:30am 13.8 10.7 7.3 65 3.2 N 13 20 7 11 1012.8 1012.9 0.0
23/06:00am 13.8 9.9 7.3 65 3.2 NW 17 26 9 14 1012.6 1012.7 0.0
23/05:30am 13.5 10.8 7.3 66 3.0 WSW 11 22 6 12 1012.3 1012.4 0.0
23/05:00am 13.0 11.1 7.5 69 2.7 W 7 13 4 7 1012.0 1012.1 0.0
23/04:30am 13.6 11.3 7.6 67 3.0 NW 9 22 5 12 1012.1 1012.2 0.0
23/04:00am 13.4 12.9 7.8 69 2.8 CALM 0 0 0 0 1012.0 1012.1 0.0
23/03:30am 13.2 11.3 7.6 69 2.7 NE 7 13 4 7 1011.8 1011.9 0.0
23/03:00am 13.3 11.4 7.7 69 2.8 NW 7 9 4 5 1012.0 1012.1 0.0
23/02:30am 13.6 12.0 8.0 69 2.8 ENE 6 11 3 6 1012.4 1012.5 0.0
23/02:00am 13.3 11.2 8.2 71 2.5 ESE 9 13 5 7 1012.2 1012.3 0.0
23/01:30am 13.1 12.2 7.8 70 2.6 WSW 2 7 1 4 1012.1 1012.2 0.0
23/01:00am 13.0 12.1 7.7 70 2.6 WSW 2 7 1 4 1012.2 1012.3 0.0
23/12:30am 13.2 11.4 7.9 70 2.6 N 7 15 4 8 1012.4 1012.5 0.0
23/12:00am 12.8 11.0 7.3 69 2.7 NNW 6 7 3 4 1012.4 1012.5 0.0
 
Date/Time
EST
Temp
°C
App
Temp
°C
Dew
Point
°C
Rel
Hum
%
Delta-T
°C
Wind Press
QNH
hPa
Press
MSL
hPa
Rain since
9am
mm
Dir  Spd
km/h
Gust
km/h
Spd
kts
Gust
kts
22/11:30pm 13.2 11.7 7.0 66 3.0 ESE 4 9 2 5 1012.6 1012.7 0.0
22/11:00pm 13.0 11.5 6.8 66 3.0 NNW 4 7 2 4 1012.8 1012.9 0.0
22/10:30pm 12.9 11.6 5.8 62 3.3 NNW 2 6 1 3 1012.7 1012.8 0.0
22/10:00pm 13.7 11.1 6.1 60 3.6 N 9 17 5 9 1012.8 1012.9 0.0
22/09:30pm 13.8 10.0 5.7 58 3.8 N 15 22 8 12 1012.6 1012.7 0.0
22/09:00pm 13.8 9.9 5.4 57 4.0 N 15 22 8 12 1012.6 1012.7 0.0
22/08:30pm 13.8 9.2 5.4 57 4.0 N 19 26 10 14 1012.3 1012.4 0.0
22/08:00pm 14.5 9.6 5.3 54 4.3 NNW 20 32 11 17 1012.2 1012.3 0.0
22/07:30pm 14.7 8.4 5.5 54 4.4 NNW 28 43 15 23 1012.3 1012.4 0.0
22/07:00pm 15.0 9.4 5.2 52 4.6 NNW 24 43 13 23 1012.3 1012.4 0.0
22/06:30pm 15.1 9.9 5.3 52 4.6 NW 22 32 12 17 1012.2 1012.3 0.0
22/06:00pm 15.2 10.5 5.1 51 4.8 NW 19 32 10 17 1011.9 1012.0 0.0
22/05:30pm 15.7 9.6 5.0 49 5.1 NNW 26 41 14 22 1011.8 1011.9 0.0
22/05:00pm 16.0 10.0 5.3 49 5.1 NW 26 43 14 23 1011.5 1011.6 0.0
22/04:30pm 16.2 9.7 4.9 47 5.4 NNW 28 52 15 28 1011.3 1011.4 0.0
22/04:12pm 16.3 9.6 5.6 49 5.2 NNW 30 50 16 27 1011.1 1011.2 0.0
22/04:00pm 16.3 10.0 5.6 49 5.2 NW 28 44 15 24 1011.2 1011.3 0.0
22/03:31pm 16.5 9.3 5.2 47 5.4 NNW 32 50 17 27 1010.9 1011.0 0.0
22/03:30pm 16.6 9.5 5.3 47 5.4 NW 32 44 17 24 1010.9 1011.0 0.0
22/03:01pm 16.9 9.7 5.8 48 5.4 NNW 33 52 18 28 1010.7 1010.8 0.0
22/03:00pm 16.9 9.7 5.8 48 5.4 NNW 33 46 18 25 1010.7 1010.8 0.0
22/02:31pm 16.6 10.5 6.7 52 4.9 NNW 28 52 15 28 1010.9 1011.0 0.0
22/02:30pm 16.6 10.5 6.7 52 4.9 NNW 28 43 15 23 1010.9 1011.0 0.0
22/02:00pm 16.1 10.2 7.3 56 4.4 NNW 28 37 15 20 1011.1 1011.2 0.0
22/01:30pm 15.6 11.4 7.6 59 4.0 NNW 19 32 10 17 1011.2 1011.3 0.0
22/01:00pm 15.4 9.8 7.2 58 4.1 NNW 26 43 14 23 1011.4 1011.5 0.0
22/12:30pm 15.2 9.3 7.3 59 3.9 NNW 28 41 15 22 1011.7 1011.8 0.0
22/12:19pm 15.1 9.1 7.2 59 3.9 NW 28 46 15 25 1012.1 1012.2 0.0
22/12:00pm 15.3 10.2 7.6 60 3.8 NNW 24 41 13 22 1012.6 1012.7 0.0
22/11:30am 15.5 11.2 8.0 61 3.8 NNW 20 32 11 17 1012.8 1012.9 0.0
22/11:00am 14.8 11.7 8.7 67 3.1 NNW 15 22 8 12 1013.2 1013.3 0.0
22/10:30am 13.9 11.5 8.5 70 2.7 NNW 11 15 6 8 1013.4 1013.5 0.0
22/10:00am 13.1 10.3 8.6 74 2.3 NNW 13 19 7 10 1013.2 1013.3 0.0
22/09:30am 12.1 9.6 8.4 78 1.8 N 11 15 6 8 1013.1 1013.2 0.0
22/09:00am 10.5 8.3 7.9 84 1.3 NNW 9 19 5 10 1013.1 1013.2 0.0
22/08:30am 9.3 7.9 7.3 87 0.9 W 4 11 2 6 1012.7 1012.8 0.0
22/08:00am 9.9 8.2 7.5 85 1.1 N 6 9 3 5 1012.3 1012.4 0.0
22/07:30am 10.2 8.2 7.3 82 1.4 W 7 11 4 6 1012.4 1012.5 0.0
22/07:00am 10.9 7.9 7.8 81 1.5 NW 13 17 7 9 1012.1 1012.2 0.0
22/06:30am 11.1 8.9 7.8 80 1.6 NW 9 15 5 8 1012.0 1012.1 0.0
22/06:00am 11.6 8.3 7.9 78 1.8 NNW 15 20 8 11 1011.4 1011.5 0.0
22/05:30am 11.4 9.2 7.7 78 1.8 N 9 13 5 7 1010.8 1010.9 0.0
22/05:00am 11.6 7.9 8.1 79 1.7 NNW 17 22 9 12 1010.5 1010.6 0.0
22/04:30am 12.2 8.4 7.7 74 2.2 N 17 22 9 12 1010.4 1010.5 0.0
22/04:00am 12.2 8.1 7.7 74 2.2 N 19 24 10 13 1010.0 1010.2 0.0

Latest Capital City Observations: Canberra | Sydney | Melbourne | Brisbane | Adelaide | Perth | Hobart | Darwin

Other formats

Comma delimited format used in spreadsheet applications
http://www.bom.gov.au/fwo/IDT60901/IDT60901.94970.axf

JavaScript Object Notation format (JSON) in row-major order
http://www.bom.gov.au/fwo/IDT60901/IDT60901.94970.json

Data quality

Most of these data are generated automatically and are frequently updated. Quality checks on data are not normally performed. It is possible for incorrect values to appear. Refer to information at About Latest Weather Observations and please check the disclaimer before using these data.